createdAt,value
2023-08-18T00:02:19.629Z,30.70
2023-08-18T00:04:47.071Z,30.61
2023-08-18T00:07:14.588Z,30.28
2023-08-18T00:09:42.190Z,30.19
2023-08-18T00:12:09.868Z,30.53
2023-08-18T00:14:38.028Z,30.51
2023-08-18T00:17:05.710Z,30.18
2023-08-18T00:19:34.830Z,30.64
2023-08-18T00:22:02.507Z,31.09
2023-08-18T00:24:30.031Z,30.61
2023-08-18T00:26:57.469Z,31.04
2023-08-18T00:29:24.991Z,31.17
2023-08-18T00:31:52.511Z,31.08
2023-08-18T00:34:20.054Z,30.38
2023-08-18T00:36:49.159Z,30.99
2023-08-18T00:39:16.828Z,30.61
2023-08-18T00:41:44.286Z,31.30
2023-08-18T00:44:11.963Z,31.45
2023-08-18T00:46:39.943Z,31.08
2023-08-18T00:49:10.766Z,31.32
2023-08-18T00:51:40.996Z,31.30
2023-08-18T00:54:11.630Z,31.19
2023-08-18T00:56:39.147Z,30.99
2023-08-18T00:59:08.110Z,31.27
2023-08-18T01:01:36.353Z,31.43
2023-08-18T01:04:06.226Z,31.70
2023-08-18T01:06:33.881Z,31.08
2023-08-18T01:09:01.629Z,31.42
2023-08-18T01:11:38.678Z,31.44
2023-08-18T01:14:22.835Z,31.43
2023-08-18T01:16:57.984Z,31.54
2023-08-18T01:19:26.838Z,31.88
2023-08-18T01:21:57.070Z,31.99
2023-08-18T01:24:26.115Z,32.00
2023-08-18T01:26:53.659Z,32.27
2023-08-18T01:29:23.661Z,32.85
2023-08-18T01:31:57.401Z,32.99
2023-08-18T01:34:28.914Z,33.12
2023-08-18T01:36:59.309Z,32.97
2023-08-18T01:39:31.464Z,33.25
2023-08-18T01:42:00.672Z,33.18
2023-08-18T01:44:28.271Z,33.35
2023-08-18T01:46:55.725Z,33.55
2023-08-18T01:49:23.484Z,33.74
2023-08-18T01:51:50.998Z,33.49
2023-08-18T01:54:18.532Z,33.85
2023-08-18T01:56:47.715Z,33.68
2023-08-18T01:59:16.038Z,33.91
2023-08-18T02:01:43.492Z,33.69
2023-08-18T02:04:10.992Z,33.68
2023-08-18T02:06:38.590Z,33.63
2023-08-18T02:09:06.113Z,33.86
2023-08-18T02:11:33.789Z,34.00
2023-08-18T02:14:02.748Z,33.60
2023-08-18T02:16:30.314Z,33.46
2023-08-18T02:18:57.869Z,33.41
2023-08-18T02:21:25.631Z,33.03
2023-08-18T02:23:52.916Z,32.93
2023-08-18T02:26:20.538Z,32.99
2023-08-18T02:28:48.032Z,32.74
2023-08-18T02:31:17.078Z,32.92
2023-08-18T02:33:44.671Z,33.13
2023-08-18T02:36:13.694Z,33.08
2023-08-18T02:38:41.474Z,32.88
2023-08-18T02:41:08.989Z,32.64
2023-08-18T02:43:36.688Z,32.49
2023-08-18T02:46:04.237Z,32.54
2023-08-18T02:48:33.554Z,32.91
2023-08-18T02:51:04.310Z,32.95
2023-08-18T02:53:31.875Z,32.94
2023-08-18T02:55:59.470Z,32.75
2023-08-18T02:58:27.952Z,32.70
2023-08-18T03:03:44.352Z,33.15
2023-08-18T03:06:11.550Z,32.93
2023-08-18T03:08:38.639Z,32.97
2023-08-18T03:11:05.825Z,32.51
2023-08-18T03:13:33.140Z,32.29
2023-08-18T03:16:00.427Z,32.41
2023-08-18T03:18:27.675Z,32.79
2023-08-18T03:21:00.993Z,32.38
2023-08-18T03:23:29.068Z,32.67
2023-08-18T03:26:00.460Z,32.73
2023-08-18T03:28:28.281Z,32.65
2023-08-18T03:30:59.572Z,32.38
2023-08-18T03:33:27.477Z,32.63
2023-08-18T03:35:55.160Z,32.54
2023-08-18T03:38:24.696Z,32.41
2023-08-18T03:40:58.996Z,32.61
2023-08-18T03:43:26.681Z,32.22
2023-08-18T03:45:54.226Z,32.67
2023-08-18T03:48:21.719Z,33.48
2023-08-18T03:50:49.238Z,33.18
2023-08-18T03:53:16.782Z,32.83
2023-08-18T03:55:50.225Z,32.74
2023-08-18T03:58:17.878Z,32.64
2023-08-18T04:00:45.168Z,32.95
2023-08-18T04:03:12.778Z,32.79
2023-08-18T04:05:46.363Z,32.81
2023-08-18T04:08:13.882Z,32.92
2023-08-18T04:10:41.402Z,32.82
2023-08-18T04:13:10.552Z,33.14
2023-08-18T04:15:38.140Z,33.02
2023-08-18T04:18:06.718Z,33.13
2023-08-18T04:20:34.362Z,33.09
2023-08-18T04:23:01.881Z,33.45
2023-08-18T04:25:29.488Z,33.32
2023-08-18T04:27:57.006Z,33.86
2023-08-18T04:30:26.212Z,33.79
2023-08-18T04:32:53.776Z,33.68
2023-08-18T04:35:21.321Z,33.55
2023-08-18T04:37:48.838Z,33.94
2023-08-18T04:40:16.362Z,33.56
2023-08-18T04:42:43.883Z,33.67
2023-08-18T04:45:11.802Z,34.03
2023-08-18T04:47:40.959Z,33.58
2023-08-18T04:50:09.725Z,33.71
2023-08-18T04:52:37.326Z,33.59
2023-08-18T04:55:05.651Z,33.55
2023-08-18T04:57:33.173Z,33.54
2023-08-18T05:00:00.607Z,33.51
2023-08-18T05:02:28.420Z,33.47
2023-08-18T05:04:57.718Z,33.69
2023-08-18T05:07:25.404Z,33.46
2023-08-18T05:09:53.007Z,33.70
2023-08-18T05:12:20.449Z,33.50
2023-08-18T05:14:47.961Z,33.38
2023-08-18T05:17:15.640Z,33.50
2023-08-18T05:19:43.080Z,33.35
2023-08-18T05:22:12.198Z,33.41
2023-08-18T05:24:39.722Z,33.24
2023-08-18T05:27:07.163Z,33.35
2023-08-18T05:29:34.680Z,33.48
2023-08-18T05:32:02.195Z,33.62
2023-08-18T05:34:29.560Z,34.82
2023-08-18T05:36:57.090Z,34.12
2023-08-18T05:39:26.196Z,34.29
2023-08-18T05:41:53.638Z,34.04
2023-08-18T05:44:21.327Z,34.44
2023-08-18T05:46:48.922Z,34.15
2023-08-18T05:49:16.282Z,34.13
2023-08-18T05:51:43.792Z,33.71
2023-08-18T05:54:12.748Z,34.16
2023-08-18T05:56:42.045Z,34.09
2023-08-18T05:59:09.640Z,34.04
2023-08-18T06:01:37.314Z,33.52
2023-08-18T06:04:05.766Z,33.58
2023-08-18T06:06:33.385Z,33.52
2023-08-18T06:09:01.399Z,34.13
2023-08-18T06:11:28.842Z,33.04
2023-08-18T06:13:58.043Z,34.21
2023-08-18T06:16:25.592Z,35.94
2023-08-18T06:18:53.077Z,37.14
2023-08-18T06:21:20.602Z,35.51
2023-08-18T06:23:48.120Z,33.70
2023-08-18T06:26:15.483Z,33.60
2023-08-18T06:28:42.997Z,32.08
2023-08-18T06:31:11.898Z,33.42
2023-08-18T06:33:39.425Z,32.44
2023-08-18T06:36:07.409Z,31.92
2023-08-18T06:38:35.001Z,31.55
2023-08-18T06:41:02.511Z,31.36
2023-08-18T06:43:29.954Z,31.76
2023-08-18T06:45:57.621Z,30.72
2023-08-18T06:48:26.677Z,30.96
2023-08-18T06:50:54.205Z,30.28
2023-08-18T06:53:21.718Z,30.39
2023-08-18T06:56:02.200Z,29.42
2023-08-18T06:58:31.075Z,30.10
2023-08-18T07:00:58.679Z,29.37
2023-08-18T07:03:28.179Z,28.88
2023-08-18T07:05:55.876Z,29.11
2023-08-18T07:08:23.803Z,28.17
2023-08-18T07:10:51.177Z,29.19
2023-08-18T07:13:18.683Z,28.49
2023-08-18T07:15:46.146Z,31.98
2023-08-18T07:18:13.745Z,30.23
2023-08-18T07:20:44.927Z,30.04
2023-08-18T07:23:12.518Z,29.10
2023-08-18T07:25:40.438Z,28.31
2023-08-18T07:28:07.960Z,27.51
2023-08-18T07:30:35.810Z,27.57
2023-08-18T07:33:03.263Z,27.61
2023-08-18T07:35:31.563Z,27.78
2023-08-18T07:38:00.856Z,29.02
2023-08-18T07:40:28.457Z,27.94
2023-08-18T07:42:56.120Z,27.20
2023-08-18T07:45:23.876Z,27.75
2023-08-18T07:47:51.343Z,28.12
2023-08-18T07:50:18.918Z,28.27
2023-08-18T07:52:46.525Z,28.48
2023-08-18T07:55:15.568Z,28.28
2023-08-18T07:57:43.238Z,28.00
2023-08-18T08:00:12.200Z,28.48
2023-08-18T08:02:39.816Z,27.75
2023-08-18T08:05:08.685Z,28.69
2023-08-18T08:07:36.598Z,28.08
2023-08-18T08:10:05.386Z,28.27
2023-08-18T08:12:35.808Z,27.46
2023-08-18T08:15:03.719Z,28.56
2023-08-18T08:17:31.607Z,27.72
2023-08-18T08:19:59.480Z,28.99
2023-08-18T08:22:27.181Z,28.33
2023-08-18T08:24:55.016Z,28.03
2023-08-18T08:27:23.158Z,28.38
2023-08-18T08:29:52.283Z,27.88
2023-08-18T08:32:19.883Z,28.09
2023-08-18T08:34:50.601Z,28.21
2023-08-18T08:37:18.920Z,28.85
2023-08-18T08:39:47.961Z,28.82
2023-08-18T08:42:15.719Z,29.83
2023-08-18T08:44:43.249Z,27.72
2023-08-18T08:47:17.472Z,28.80
2023-08-18T08:49:47.648Z,32.96
2023-08-18T08:52:16.920Z,28.95
2023-08-18T08:54:51.158Z,28.86
2023-08-18T08:57:21.647Z,28.46
2023-08-18T08:59:49.314Z,28.73
2023-08-18T09:02:18.471Z,29.88
2023-08-18T09:04:45.965Z,28.54
2023-08-18T09:07:14.440Z,28.34
2023-08-18T09:09:42.763Z,28.07
2023-08-18T09:12:11.807Z,28.33
2023-08-18T09:14:40.855Z,27.99
2023-08-18T09:17:09.719Z,27.73
2023-08-18T09:19:39.327Z,28.10
2023-08-18T09:22:06.760Z,28.00
2023-08-18T09:24:34.680Z,27.36
2023-08-18T09:27:08.762Z,27.20
2023-08-18T09:29:39.163Z,27.91
2023-08-18T09:32:12.590Z,27.18
2023-08-18T09:34:44.047Z,27.41
2023-08-18T09:37:11.726Z,27.26
2023-08-18T09:39:40.108Z,26.83
2023-08-18T09:42:08.283Z,27.30
2023-08-18T09:44:35.737Z,26.70
2023-08-18T09:47:06.444Z,26.05
2023-08-18T09:49:36.849Z,26.75
2023-08-18T09:52:08.510Z,27.15
2023-08-18T09:54:47.513Z,26.23
2023-08-18T09:57:26.044Z,26.68
2023-08-18T09:59:56.598Z,25.93
2023-08-18T10:02:30.157Z,26.04
2023-08-18T10:04:58.481Z,26.12
2023-08-18T10:07:28.600Z,25.87
2023-08-18T10:09:57.560Z,26.05
2023-08-18T10:12:25.008Z,25.38
2023-08-18T10:14:55.005Z,26.11
2023-08-18T10:17:24.057Z,25.36
2023-08-18T10:19:54.275Z,25.17
2023-08-18T10:22:24.684Z,25.33
2023-08-18T10:24:54.859Z,25.13
2023-08-18T10:27:38.999Z,24.55
2023-08-18T10:30:29.801Z,25.60
2023-08-18T10:33:07.190Z,25.37
2023-08-18T10:35:37.159Z,25.35
2023-08-18T10:38:06.361Z,25.50
2023-08-18T10:40:37.474Z,25.60
2023-08-18T10:43:08.040Z,26.10
2023-08-18T10:45:36.401Z,24.99
2023-08-18T10:48:05.434Z,25.65
2023-08-18T10:50:37.082Z,25.30
2023-08-18T10:53:04.849Z,25.68
2023-08-18T10:55:34.371Z,25.41
2023-08-18T10:58:01.982Z,26.17
2023-08-18T11:00:33.033Z,25.96
2023-08-18T11:03:01.121Z,25.15
2023-08-18T11:05:31.400Z,25.14
2023-08-18T11:07:59.585Z,24.24
2023-08-18T11:10:28.921Z,25.38
2023-08-18T11:12:59.001Z,25.62
2023-08-18T11:15:26.788Z,24.34
2023-08-18T11:17:54.609Z,24.86
2023-08-18T11:20:22.290Z,25.55
2023-08-18T11:22:51.878Z,25.24
2023-08-18T11:25:20.694Z,24.88
2023-08-18T11:27:50.203Z,24.62
2023-08-18T11:30:19.800Z,24.73
2023-08-18T11:32:47.347Z,24.21
2023-08-18T11:35:15.878Z,24.56
2023-08-18T11:37:44.841Z,24.75
2023-08-18T11:40:14.519Z,24.25
2023-08-18T11:42:43.398Z,23.46
2023-08-18T11:45:11.874Z,24.50
2023-08-18T11:47:41.106Z,23.97
2023-08-18T11:50:09.089Z,24.14
2023-08-18T11:52:44.928Z,24.02
2023-08-18T11:55:13.647Z,23.37
2023-08-18T11:57:43.398Z,23.21
2023-08-18T12:00:14.362Z,23.30
2023-08-18T12:02:45.085Z,23.58
2023-08-18T12:05:22.615Z,23.88
2023-08-18T12:07:52.201Z,24.21
2023-08-18T12:10:20.359Z,23.46
2023-08-18T12:12:58.541Z,23.41
2023-08-18T12:15:27.114Z,23.02
2023-08-18T12:17:56.287Z,20.47
2023-08-18T12:20:24.214Z,21.67
2023-08-18T12:22:53.889Z,22.81
2023-08-18T12:25:22.204Z,20.74
2023-08-18T12:27:50.681Z,21.10
2023-08-18T12:30:19.978Z,21.23
2023-08-18T12:32:48.890Z,21.19
2023-08-18T12:35:18.513Z,21.10
2023-08-18T12:37:46.048Z,19.62
2023-08-18T12:40:13.973Z,20.14
2023-08-18T12:42:42.813Z,18.88
2023-08-18T12:45:11.957Z,18.27
2023-08-18T12:47:40.313Z,17.93
2023-08-18T12:50:08.764Z,18.81
2023-08-18T12:52:37.722Z,19.36
2023-08-18T12:55:05.960Z,19.80
2023-08-18T12:57:33.490Z,19.28
2023-08-18T13:00:01.003Z,19.46
2023-08-18T13:02:28.933Z,19.87
2023-08-18T13:04:56.928Z,19.94
2023-08-18T13:07:25.801Z,18.91
2023-08-18T13:09:54.920Z,18.54
2023-08-18T13:12:24.137Z,18.65
2023-08-18T13:14:51.660Z,19.59
2023-08-18T13:17:19.102Z,19.07
2023-08-18T13:19:49.139Z,17.27
2023-08-18T13:22:17.401Z,17.58
2023-08-18T13:24:44.840Z,17.55
2023-08-18T13:27:13.880Z,16.83
2023-08-18T13:29:41.400Z,16.76
2023-08-18T13:32:08.838Z,17.70
2023-08-18T13:34:36.437Z,17.49
2023-08-18T13:37:03.973Z,17.53
2023-08-18T13:39:31.389Z,18.02
2023-08-18T13:41:58.793Z,18.03
2023-08-18T13:44:28.127Z,17.35
2023-08-18T13:46:55.562Z,16.73
2023-08-18T13:49:23.160Z,16.99
2023-08-18T13:51:50.761Z,16.73
2023-08-18T13:54:18.445Z,16.27
2023-08-18T13:56:46.142Z,16.51
2023-08-18T13:59:14.039Z,16.14
2023-08-18T14:01:43.240Z,16.61
2023-08-18T14:04:10.842Z,16.35
2023-08-18T14:06:38.368Z,16.38
2023-08-18T14:09:06.203Z,16.45
2023-08-18T14:11:33.798Z,16.31
2023-08-18T14:14:01.238Z,16.53
2023-08-18T14:16:29.141Z,16.13
2023-08-18T14:18:58.440Z,17.13
2023-08-18T14:21:27.002Z,16.70
2023-08-18T14:23:54.681Z,16.55
2023-08-18T14:26:22.277Z,16.99
2023-08-18T14:28:49.885Z,17.15
2023-08-18T14:31:18.138Z,17.20
2023-08-18T14:33:47.356Z,17.08
2023-08-18T14:36:16.923Z,16.88
2023-08-18T14:38:44.611Z,16.15
2023-08-18T14:41:12.222Z,16.56
2023-08-18T14:43:39.908Z,16.33
2023-08-18T14:46:07.550Z,16.40
2023-08-18T14:48:35.241Z,16.54
2023-08-18T14:51:02.768Z,16.34
2023-08-18T14:53:31.728Z,16.45
2023-08-18T14:55:59.343Z,16.84
2023-08-18T14:58:27.809Z,15.88
2023-08-18T15:00:55.806Z,16.91
2023-08-18T15:03:24.067Z,17.07
2023-08-18T15:05:51.810Z,16.44
2023-08-18T15:08:20.450Z,16.27
2023-08-18T15:10:49.768Z,16.53
2023-08-18T15:13:17.321Z,16.21
2023-08-18T15:15:44.911Z,16.41
2023-08-18T15:18:12.580Z,16.68
2023-08-18T15:20:40.135Z,16.44
2023-08-18T15:23:07.641Z,16.15
2023-08-18T15:25:36.765Z,16.38
2023-08-18T15:28:06.358Z,16.00
2023-08-18T15:30:33.804Z,16.54
2023-08-18T15:33:01.425Z,16.63
2023-08-18T15:35:28.840Z,16.43
2023-08-18T15:37:56.281Z,16.66
2023-08-18T15:40:23.804Z,16.40
2023-08-18T15:42:51.328Z,16.69
2023-08-18T15:45:20.391Z,16.40
2023-08-18T15:47:47.917Z,16.57
2023-08-18T15:50:15.644Z,16.61
2023-08-18T15:52:42.846Z,16.20
2023-08-18T15:55:10.525Z,16.15
2023-08-18T15:57:38.044Z,16.57
2023-08-18T16:00:07.092Z,16.10
2023-08-18T16:02:36.049Z,16.07
2023-08-18T16:05:03.723Z,16.24
2023-08-18T16:07:31.525Z,16.31
2023-08-18T16:09:59.515Z,16.84
2023-08-18T16:12:27.162Z,16.90
2023-08-18T16:17:25.223Z,16.95
2023-08-18T16:19:54.440Z,17.10
2023-08-18T16:22:21.882Z,16.95
2023-08-18T16:24:49.409Z,17.18
2023-08-18T16:27:16.926Z,17.03
2023-08-18T16:29:44.283Z,17.07
2023-08-18T16:32:11.801Z,17.27
2023-08-18T16:34:39.170Z,17.26
2023-08-18T16:37:08.286Z,17.30
2023-08-18T16:39:35.723Z,17.22
2023-08-18T16:42:03.323Z,17.18
2023-08-18T16:44:30.846Z,17.08
2023-08-18T16:46:59.566Z,17.04
2023-08-18T16:49:28.129Z,17.29
2023-08-18T16:51:55.568Z,17.36
2023-08-18T16:54:24.314Z,17.45
2023-08-18T16:56:52.125Z,17.59
2023-08-18T16:59:19.579Z,17.53
2023-08-18T17:01:47.092Z,17.84
2023-08-18T17:04:15.126Z,18.75
2023-08-18T17:06:42.763Z,19.27
2023-08-18T17:09:10.292Z,19.40
2023-08-18T17:11:41.164Z,19.61
2023-08-18T17:14:08.684Z,20.13
2023-08-18T17:16:36.216Z,20.25
2023-08-18T17:19:03.721Z,20.13
2023-08-18T17:21:31.244Z,19.45
2023-08-18T17:23:58.759Z,20.33
2023-08-18T17:26:26.288Z,20.61
2023-08-18T17:28:55.164Z,20.52
2023-08-18T17:31:22.843Z,21.29
2023-08-18T17:33:50.370Z,21.74
2023-08-18T17:36:17.681Z,22.33
2023-08-18T17:38:45.083Z,22.21
2023-08-18T17:41:12.763Z,22.41
2023-08-18T17:43:40.216Z,22.40
2023-08-18T17:46:09.337Z,22.61
2023-08-18T17:48:36.861Z,22.56
2023-08-18T17:51:05.165Z,22.52
2023-08-18T17:53:33.813Z,22.54
2023-08-18T17:56:01.971Z,21.84
2023-08-18T17:58:29.482Z,21.82
2023-08-18T18:01:00.041Z,22.00
2023-08-18T18:03:29.333Z,22.09
2023-08-18T18:05:56.883Z,22.19
2023-08-18T18:08:25.081Z,22.43
2023-08-18T18:10:52.605Z,22.39
2023-08-18T18:13:20.125Z,22.48
2023-08-18T18:15:49.134Z,20.43
2023-08-18T18:18:16.785Z,20.62
2023-08-18T18:20:45.811Z,20.72
2023-08-18T18:23:13.326Z,21.03
2023-08-18T18:25:40.840Z,22.65
2023-08-18T18:28:08.209Z,22.46
2023-08-18T18:30:36.857Z,23.29
2023-08-18T18:33:05.208Z,25.35
2023-08-18T18:35:32.933Z,26.17
2023-08-18T18:38:02.962Z,25.49
2023-08-18T18:40:31.418Z,26.84
2023-08-18T18:42:58.842Z,24.93
2023-08-18T18:45:26.525Z,25.61
2023-08-18T18:47:54.071Z,24.51
2023-08-18T18:50:21.679Z,24.61
2023-08-18T18:52:49.380Z,25.07
2023-08-18T18:55:18.532Z,26.39
2023-08-18T18:57:46.061Z,27.11
2023-08-18T19:00:15.252Z,26.78
2023-08-18T19:02:43.092Z,28.19
2023-08-18T19:05:10.842Z,28.82
2023-08-18T19:07:38.520Z,28.83
2023-08-18T19:10:07.414Z,26.15
2023-08-18T19:12:37.003Z,25.28
2023-08-18T19:15:05.315Z,26.49
2023-08-18T19:17:33.168Z,27.84
2023-08-18T19:20:00.710Z,28.53
2023-08-18T19:22:33.735Z,28.73
2023-08-18T19:25:01.737Z,25.84
2023-08-18T19:27:31.391Z,28.87
2023-08-18T19:30:00.933Z,28.60
2023-08-18T19:32:28.566Z,28.29
2023-08-18T19:34:56.207Z,27.58
2023-08-18T19:37:23.802Z,25.33
2023-08-18T19:39:51.164Z,28.63
2023-08-18T19:42:18.764Z,27.78
2023-08-18T19:44:46.283Z,27.97
2023-08-18T19:47:15.330Z,25.75
2023-08-18T19:49:43.002Z,27.78
2023-08-18T19:52:10.525Z,27.55
2023-08-18T19:54:37.960Z,27.17
2023-08-18T19:57:05.569Z,28.00
2023-08-18T19:59:33.257Z,28.79
2023-08-18T20:02:00.760Z,28.37
2023-08-18T20:04:30.304Z,28.31
2023-08-18T20:06:57.888Z,26.02
2023-08-18T20:09:26.442Z,27.32
2023-08-18T20:11:54.041Z,25.63
2023-08-18T20:14:21.572Z,26.26
2023-08-18T20:16:49.072Z,26.77
2023-08-18T20:19:17.246Z,27.39
2023-08-18T20:21:46.448Z,26.98
2023-08-18T20:24:13.882Z,26.79
2023-08-18T20:26:41.401Z,25.63
2023-08-18T20:29:08.846Z,27.12
2023-08-18T20:31:36.292Z,28.31
2023-08-18T20:34:03.967Z,28.48
2023-08-18T20:36:31.561Z,28.15
2023-08-18T20:39:00.524Z,27.20
2023-08-18T20:41:28.122Z,26.51
2023-08-18T20:43:55.738Z,25.92
2023-08-18T20:46:23.310Z,26.06
2023-08-18T20:48:51.017Z,26.83
2023-08-18T20:51:18.540Z,26.08
2023-08-18T20:53:49.008Z,28.06
2023-08-18T20:56:18.222Z,27.73
2023-08-18T20:58:45.747Z,27.78
2023-08-18T21:01:13.265Z,27.34
2023-08-18T21:03:41.415Z,27.19
2023-08-18T21:06:09.101Z,26.40
2023-08-18T21:08:36.544Z,27.94
2023-08-18T21:11:03.910Z,27.81
2023-08-18T21:13:33.360Z,26.94
2023-08-18T21:16:01.442Z,27.96
2023-08-18T21:18:29.187Z,27.65
2023-08-18T21:20:57.184Z,27.94
2023-08-18T21:23:24.628Z,27.82
2023-08-18T21:25:52.544Z,27.65
2023-08-18T21:28:20.062Z,26.45
2023-08-18T21:30:49.024Z,27.50
2023-08-18T21:33:16.619Z,28.20
2023-08-18T21:35:45.418Z,28.19
2023-08-18T21:38:12.863Z,28.07
2023-08-18T21:40:40.307Z,27.05
2023-08-18T21:43:07.821Z,26.43
2023-08-18T21:45:35.313Z,27.29
2023-08-18T21:48:04.892Z,27.06
2023-08-18T21:50:32.384Z,26.79
2023-08-18T21:52:59.901Z,26.96
2023-08-18T21:55:27.418Z,27.27
2023-08-18T21:57:54.940Z,28.72
2023-08-18T22:00:22.393Z,27.95
2023-08-18T22:02:50.150Z,27.12
2023-08-18T22:05:19.177Z,28.49
2023-08-18T22:07:46.737Z,26.94
2023-08-18T22:10:15.534Z,29.25
2023-08-18T22:12:43.978Z,28.55
2023-08-18T22:15:11.748Z,28.16
2023-08-18T22:17:39.396Z,27.84
2023-08-18T22:20:08.979Z,28.53
2023-08-18T22:22:38.451Z,27.14
2023-08-18T22:25:07.108Z,27.45
2023-08-18T22:27:34.703Z,28.76
2023-08-18T22:30:02.154Z,27.90
2023-08-18T22:32:30.078Z,28.44
2023-08-18T22:34:58.323Z,28.21
2023-08-18T22:37:26.458Z,28.37
2023-08-18T22:39:56.864Z,28.18
2023-08-18T22:42:24.389Z,28.33
2023-08-18T22:44:51.977Z,28.07
2023-08-18T22:47:19.577Z,28.34
2023-08-18T22:49:48.217Z,28.86
2023-08-18T22:52:15.818Z,28.07
2023-08-18T22:54:43.417Z,27.85
2023-08-18T22:57:13.257Z,27.90
2023-08-18T22:59:40.882Z,28.56
2023-08-18T23:02:09.033Z,28.86
2023-08-18T23:04:36.621Z,28.62
2023-08-18T23:07:04.285Z,28.68
2023-08-18T23:09:32.457Z,28.59
2023-08-18T23:11:59.907Z,28.63
2023-08-18T23:14:28.863Z,28.49
2023-08-18T23:16:56.606Z,28.23
2023-08-18T23:19:24.236Z,27.32
2023-08-18T23:21:51.739Z,28.77
2023-08-18T23:24:19.340Z,28.66
2023-08-18T23:26:46.785Z,28.44
2023-08-18T23:29:14.293Z,28.02
2023-08-18T23:31:43.340Z,28.26
2023-08-18T23:34:10.703Z,28.75
2023-08-18T23:36:38.220Z,28.92
2023-08-18T23:39:06.461Z,28.99
2023-08-18T23:41:33.837Z,28.73
2023-08-18T23:44:01.341Z,28.32
2023-08-18T23:46:28.886Z,28.75
2023-08-18T23:48:57.912Z,28.08
2023-08-18T23:51:25.513Z,29.22
2023-08-18T23:53:53.028Z,29.29
2023-08-18T23:56:20.316Z,29.20
2023-08-18T23:58:47.905Z,28.95
